Time;durP1;ratioP1;P1;durP2;ratioP2;P2;SDS_P1;SDS_P2;PMS_P1;PMS_P2;Temp;Humidity;BMP_temperature;BMP_pressure;BME280_temperature;BME280_humidity;BME280_pressure;Samples;Min_cycle;Max_cycle;Signal;HPM_P1;HPM_P2
2022/08/20 00:00:54;;;;;;;2.13;1.80;;;20.20;99.90;;;;;;5076904;28;20593;-75
2022/08/20 00:03:22;;;;;;;1.93;1.83;;;20.20;99.90;;;;;;5073910;28;20593;-76
2022/08/20 00:06:01;;;;;;;1.50;1.40;;;20.20;99.90;;;;;;5073191;28;20977;-76
2022/08/20 00:08:28;;;;;;;4.90;1.80;;;20.20;99.90;;;;;;5073640;28;20625;-75
2022/08/20 00:10:56;;;;;;;2.70;1.70;;;20.10;99.90;;;;;;5073816;28;21101;-76
2022/08/20 00:13:44;;;;;;;3.07;1.73;;;20.10;99.90;;;;;;5073832;28;21105;-77
2022/08/20 00:16:12;;;;;;;1.50;1.40;;;20.10;99.90;;;;;;5072773;28;20634;-75
2022/08/20 00:18:40;;;;;;;1.50;1.40;;;20.10;99.90;;;;;;5073033;28;20624;-76
2022/08/20 00:21:14;;;;;;;1.33;1.23;;;20.20;99.90;;;;;;5075592;28;20618;-76
2022/08/20 00:23:44;;;;;;;4.17;1.60;;;20.20;99.90;;;;;;5075079;28;20703;-76
2022/08/20 00:26:11;;;;;;;1.60;1.50;;;20.20;99.90;;;;;;5076911;28;20638;-76
2022/08/20 00:28:37;;;;;;;1.67;1.40;;;20.20;99.90;;;;;;5076443;28;21039;-76
2022/08/20 00:31:06;;;;;;;3.40;1.43;;;20.20;99.90;;;;;;5076068;28;20614;-76
2022/08/20 00:33:33;;;;;;;2.83;1.40;;;20.30;99.90;;;;;;5076177;28;20942;-76
2022/08/20 00:36:05;;;;;;;1.90;1.80;;;20.40;99.90;;;;;;5076451;28;21196;-76
2022/08/20 00:38:37;;;;;;;2.90;1.40;;;20.40;99.90;;;;;;5076072;28;20610;-76
2022/08/20 00:41:05;;;;;;;1.80;1.70;;;20.50;99.90;;;;;;5076855;28;20574;-76
2022/08/20 00:43:42;;;;;;;1.60;1.50;;;20.60;99.90;;;;;;5076271;28;20925;-75
2022/08/20 00:46:22;;;;;;;1.60;1.50;;;20.60;99.90;;;;;;5076207;28;20652;-75
2022/08/20 00:48:52;;;;;;;2.93;1.70;;;20.70;99.90;;;;;;5075942;28;20612;-76
2022/08/20 00:51:40;;;;;;;1.77;1.67;;;20.60;99.90;;;;;;5075994;28;20586;-75
2022/08/20 00:54:09;;;;;;;1.40;1.30;;;20.70;99.90;;;;;;5076047;28;20606;-75
2022/08/20 00:56:37;;;;;;;2.50;1.47;;;20.70;99.90;;;;;;5076336;28;20577;-75
2022/08/20 00:59:10;;;;;;;3.53;1.77;;;20.70;99.90;;;;;;5074725;28;21153;-76
2022/08/20 01:01:38;;;;;;;2.40;1.70;;;20.70;99.90;;;;;;5075644;28;20618;-73
2022/08/20 01:04:05;;;;;;;3.17;1.40;;;20.80;99.90;;;;;;5075829;28;20650;-74
2022/08/20 01:06:31;;;;;;;1.67;1.53;;;20.80;99.90;;;;;;5075561;28;20612;-74
2022/08/20 01:09:00;;;;;;;1.77;1.63;;;20.80;99.90;;;;;;5075246;28;20590;-75
2022/08/20 01:11:34;;;;;;;1.70;1.60;;;20.80;99.90;;;;;;5075587;28;20581;-74
2022/08/20 01:14:54;;;;;;;1.70;1.60;;;20.70;99.90;;;;;;5075142;28;20624;-75
2022/08/20 01:17:01;;;;;;;1.47;1.33;;;20.70;99.90;;;;;;5067712;28;20644;-75
2022/08/20 01:19:33;;;;;;;1.80;1.70;;;20.70;99.90;;;;;;5075213;28;20638;-75
2022/08/20 01:23:25;;;;;;;3.10;1.83;;;20.60;99.90;;;;;;5075473;28;20582;-75
2022/08/20 01:24:53;;;;;;;2.40;2.30;;;20.60;99.90;;;;;;5075230;28;20964;-75
2022/08/20 01:27:21;;;;;;;2.33;1.37;;;20.50;99.90;;;;;;5074850;28;21049;-75
2022/08/20 01:29:49;;;;;;;2.07;1.70;;;20.50;99.90;;;;;;5074825;28;20606;-75
2022/08/20 01:32:15;;;;;;;3.43;1.90;;;20.50;99.90;;;;;;5074320;28;20606;-77
2022/08/20 01:34:42;;;;;;;1.50;1.40;;;20.50;99.90;;;;;;5075081;28;20593;-75
2022/08/20 01:37:08;;;;;;;2.73;1.33;;;20.60;99.90;;;;;;5074750;28;20678;-75
2022/08/20 01:39:35;;;;;;;3.83;1.50;;;20.50;99.90;;;;;;5074910;28;20596;-75
2022/08/20 01:42:14;;;;;;;2.07;1.70;;;20.50;99.90;;;;;;5075366;28;20628;-75
2022/08/20 01:44:43;;;;;;;1.87;1.73;;;20.60;99.90;;;;;;5074924;28;20557;-76
2022/08/20 01:47:14;;;;;;;1.63;1.53;;;20.50;99.90;;;;;;5073163;28;20628;-75
2022/08/20 01:49:50;;;;;;;2.90;1.87;;;20.60;99.90;;;;;;5074785;28;20598;-75
2022/08/20 01:52:37;;;;;;;1.47;1.37;;;20.60;99.90;;;;;;5074359;28;20706;-75
2022/08/20 01:55:04;;;;;;;3.93;1.80;;;20.40;99.90;;;;;;5074805;28;20599;-75
2022/08/20 01:57:30;;;;;;;1.83;1.50;;;20.30;99.90;;;;;;5074022;28;20725;-75
2022/08/20 01:59:57;;;;;;;1.93;1.80;;;20.30;99.90;;;;;;5074588;28;20582;-75
2022/08/20 02:02:25;;;;;;;2.37;1.93;;;20.30;99.90;;;;;;5073216;28;20616;-75
2022/08/20 02:04:51;;;;;;;1.60;1.50;;;20.30;99.90;;;;;;5074117;28;20642;-75
2022/08/20 02:07:21;;;;;;;2.83;1.67;;;20.30;99.90;;;;;;5074220;28;20962;-75
2022/08/20 02:09:48;;;;;;;2.23;1.87;;;20.40;99.90;;;;;;5074068;28;20582;-75
2022/08/20 02:12:15;;;;;;;2.00;1.87;;;20.40;99.90;;;;;;5074229;28;20625;-75
2022/08/20 02:14:50;;;;;;;1.80;1.70;;;20.50;99.90;;;;;;5074529;28;20578;-75
2022/08/20 02:17:18;;;;;;;1.70;1.60;;;20.50;99.90;;;;;;5074095;28;20620;-75
2022/08/20 02:20:12;;;;;;;2.07;1.97;;;20.50;99.90;;;;;;5073563;28;20617;-75
2022/08/20 02:22:46;;;;;;;3.43;2.07;;;20.40;99.90;;;;;;5063223;28;20641;-74
2022/08/20 02:25:15;;;;;;;2.27;2.17;;;20.40;99.90;;;;;;5074005;28;20626;-74
2022/08/20 02:27:44;;;;;;;1.83;1.73;;;20.40;99.90;;;;;;5074030;28;20613;-74
2022/08/20 02:30:20;;;;;;;2.60;2.40;;;20.40;99.90;;;;;;5073937;28;20614;-74
2022/08/20 02:32:47;;;;;;;7.03;1.80;;;20.50;99.90;;;;;;5073693;28;20571;-74
2022/08/20 02:35:14;;;;;;;1.97;1.87;;;20.50;99.90;;;;;;5073833;28;20582;-75
2022/08/20 02:37:43;;;;;;;2.33;2.10;;;20.60;99.90;;;;;;5073357;28;20626;-74
2022/08/20 02:40:13;;;;;;;2.53;1.77;;;20.50;99.90;;;;;;5073309;28;21019;-74
2022/08/20 02:42:41;;;;;;;1.60;1.50;;;20.50;99.90;;;;;;5073193;28;21139;-74
2022/08/20 02:45:10;;;;;;;2.50;2.37;;;20.60;99.90;;;;;;5071575;28;20594;-74
2022/08/20 02:47:38;;;;;;;2.07;1.87;;;20.60;99.90;;;;;;5073410;28;20633;-74
2022/08/20 02:50:06;;;;;;;2.50;2.10;;;20.60;99.90;;;;;;5073195;28;20610;-75
2022/08/20 02:52:32;;;;;;;2.60;2.40;;;20.60;99.90;;;;;;5073435;28;20664;-74
2022/08/20 02:54:59;;;;;;;2.90;2.70;;;20.70;99.90;;;;;;5073288;28;20575;-74
2022/08/20 02:57:27;;;;;;;2.00;1.90;;;20.80;99.90;;;;;;5073439;28;20633;-74
2022/08/20 02:59:55;;;;;;;1.90;1.80;;;20.70;99.90;;;;;;5073216;28;20586;-74
2022/08/20 03:02:21;;;;;;;2.63;1.97;;;20.70;99.90;;;;;;5073101;28;20626;-74
2022/08/20 03:04:48;;;;;;;2.73;2.27;;;20.60;99.90;;;;;;5073004;28;20658;-74
2022/08/20 03:07:14;;;;;;;2.03;1.83;;;20.60;99.90;;;;;;5073124;28;20725;-74
2022/08/20 03:09:41;;;;;;;2.50;2.40;;;20.50;99.90;;;;;;5073463;28;20577;-74
2022/08/20 03:12:07;;;;;;;1.80;1.70;;;20.40;99.90;;;;;;5072551;28;20626;-74
2022/08/20 03:14:35;;;;;;;4.30;2.10;;;20.30;99.90;;;;;;5073117;28;20559;-74
2022/08/20 03:17:02;;;;;;;2.00;1.90;;;20.30;99.90;;;;;;5071468;28;20625;-74
2022/08/20 03:19:28;;;;;;;2.73;2.20;;;20.30;99.90;;;;;;5072948;28;20615;-74
2022/08/20 03:21:55;;;;;;;2.60;2.50;;;20.40;99.90;;;;;;5072966;28;20629;-74
2022/08/20 03:24:21;;;;;;;2.23;2.13;;;20.50;99.90;;;;;;5073464;28;20609;-74
2022/08/20 03:26:48;;;;;;;2.43;2.30;;;20.50;99.90;;;;;;5073165;28;20942;-74
2022/08/20 03:29:15;;;;;;;2.87;2.00;;;20.50;99.90;;;;;;5073405;28;20566;-75
2022/08/20 03:31:41;;;;;;;2.30;2.20;;;20.50;99.90;;;;;;5073287;28;20602;-75
2022/08/20 03:34:07;;;;;;;2.47;2.10;;;20.40;99.90;;;;;;5073353;28;20570;-75
2022/08/20 03:36:34;;;;;;;3.90;2.23;;;20.40;99.90;;;;;;5073316;28;21120;-75
2022/08/20 03:39:03;;;;;;;2.53;2.30;;;20.30;99.90;;;;;;5088639;28;20679;-75
2022/08/20 03:41:31;;;;;;;2.93;2.57;;;20.40;99.90;;;;;;5073455;28;20614;-75
2022/08/20 03:43:57;;;;;;;4.40;2.90;;;20.40;99.90;;;;;;5073286;28;21169;-75
2022/08/20 03:46:24;;;;;;;3.40;2.50;;;20.40;99.90;;;;;;5073359;28;20570;-75
2022/08/20 03:48:51;;;;;;;2.73;2.53;;;20.30;99.90;;;;;;5073076;28;20610;-75
2022/08/20 03:51:18;;;;;;;3.20;2.60;;;20.30;99.90;;;;;;5073674;28;20585;-75
2022/08/20 03:53:45;;;;;;;2.43;2.23;;;20.30;99.90;;;;;;5074877;28;20624;-75
2022/08/20 03:56:11;;;;;;;2.40;2.20;;;20.40;99.90;;;;;;5077619;28;20571;-75
2022/08/20 04:02:16;;;;;;;4.70;2.57;;;20.50;99.90;;;;;;5074744;28;20630;-77
2022/08/20 04:05:09;;;;;;;6.10;3.67;;;20.50;99.90;;;;;;5048043;28;20669;-76
2022/08/20 04:07:36;;;;;;;2.97;2.77;;;20.50;99.90;;;;;;5076942;28;20691;-76
2022/08/20 04:10:08;;;;;;;2.40;2.20;;;20.40;99.90;;;;;;5076423;28;20589;-76
2022/08/20 04:12:39;;;;;;;3.87;3.57;;;20.30;99.90;;;;;;5076925;28;20579;-75
2022/08/20 04:15:11;;;;;;;2.80;2.60;;;20.30;99.90;;;;;;5076421;28;20617;-75
2022/08/20 04:17:40;;;;;;;4.93;2.83;;;20.20;99.90;;;;;;5076579;28;20583;-76
2022/08/20 04:20:10;;;;;;;3.43;3.17;;;20.10;99.90;;;;;;5076155;28;20618;-75
2022/08/20 04:22:37;;;;;;;10.60;2.70;;;20.10;99.90;;;;;;5076434;28;20579;-75
2022/08/20 04:25:07;;;;;;;2.87;2.73;;;20.10;99.90;;;;;;5076458;28;20638;-75
2022/08/20 04:27:37;;;;;;;3.80;3.50;;;20.10;99.90;;;;;;5075715;28;20664;-75
2022/08/20 04:30:07;;;;;;;3.03;2.80;;;20.10;99.90;;;;;;5076086;28;20578;-75
2022/08/20 04:32:35;;;;;;;3.23;2.93;;;20.00;99.90;;;;;;5076588;28;20612;-75
2022/08/20 04:35:06;;;;;;;3.00;2.77;;;20.00;99.90;;;;;;5076944;28;20577;-75
2022/08/20 04:37:33;;;;;;;3.67;3.33;;;20.00;99.90;;;;;;5076610;28;20583;-75
2022/08/20 04:42:50;;;;;;;4.60;3.00;;;19.90;99.90;;;;;;5076614;28;20549;-75
2022/08/20 04:45:17;;;;;;;3.10;2.90;;;19.90;99.90;;;;;;5076599;28;20578;-75
2022/08/20 04:47:45;;;;;;;4.40;3.40;;;19.80;99.90;;;;;;5075780;28;20636;-75
2022/08/20 04:50:12;;;;;;;3.03;2.83;;;19.80;99.90;;;;;;5076508;28;20671;-75
2022/08/20 04:52:39;;;;;;;3.60;3.20;;;19.80;99.90;;;;;;5076624;28;20913;-75
2022/08/20 04:55:06;;;;;;;3.63;3.33;;;19.80;99.90;;;;;;5076145;28;20610;-75
2022/08/20 04:57:37;;;;;;;3.20;3.00;;;19.80;99.90;;;;;;5075975;28;20610;-75
2022/08/20 05:00:11;;;;;;;4.20;3.57;;;19.80;99.90;;;;;;5075941;28;20644;-75
2022/08/20 05:02:38;;;;;;;4.93;3.23;;;19.80;99.90;;;;;;5075942;28;20693;-76
2022/08/20 05:05:07;;;;;;;3.73;3.30;;;19.90;99.90;;;;;;5075936;28;21048;-75
2022/08/20 05:07:39;;;;;;;4.90;3.13;;;19.80;99.90;;;;;;5074793;28;20668;-75
2022/08/20 05:10:06;;;;;;;10.77;4.37;;;19.80;99.90;;;;;;5076462;28;20613;-75
2022/08/20 05:12:33;;;;;;;3.63;3.20;;;19.80;99.90;;;;;;5075616;28;20643;-75
2022/08/20 05:14:59;;;;;;;3.70;3.50;;;19.90;99.90;;;;;;5076360;28;21135;-75
2022/08/20 05:17:26;;;;;;;3.20;3.00;;;19.90;99.90;;;;;;5076711;28;20575;-75
2022/08/20 05:19:52;;;;;;;3.07;2.87;;;20.00;99.90;;;;;;5075421;28;20618;-75
2022/08/20 05:22:19;;;;;;;6.90;3.00;;;20.00;99.90;;;;;;5076081;28;20656;-75
2022/08/20 05:24:45;;;;;;;3.23;3.03;;;20.10;99.90;;;;;;5075979;28;20695;-76
2022/08/20 05:27:11;;;;;;;7.00;3.00;;;20.30;99.90;;;;;;5057082;28;20661;-76
2022/08/20 05:29:38;;;;;;;3.50;3.30;;;20.40;99.90;;;;;;5076255;28;20678;-76
2022/08/20 05:32:04;;;;;;;3.80;3.20;;;20.40;99.90;;;;;;5074373;28;21238;-76
2022/08/20 05:34:31;;;;;;;4.10;2.97;;;20.50;99.90;;;;;;5076218;28;20746;-76
2022/08/20 05:36:58;;;;;;;3.07;2.90;;;20.60;99.90;;;;;;5076398;28;21058;-75
2022/08/20 05:39:25;;;;;;;3.60;3.30;;;20.60;99.90;;;;;;5076126;28;20628;-75
2022/08/20 05:41:51;;;;;;;2.77;2.57;;;20.70;99.90;;;;;;5074853;28;20572;-75
2022/08/20 05:44:18;;;;;;;2.77;2.67;;;20.80;99.90;;;;;;5073809;28;20987;-76
2022/08/20 05:46:46;;;;;;;6.00;3.10;;;20.80;99.90;;;;;;5075002;28;20583;-76
2022/08/20 05:49:18;;;;;;;3.20;2.90;;;20.90;99.90;;;;;;5075013;28;20654;-75
2022/08/20 05:51:45;;;;;;;3.60;3.00;;;20.90;99.90;;;;;;5074325;28;21029;-75
2022/08/20 05:54:12;;;;;;;3.07;2.80;;;20.90;99.90;;;;;;5074625;28;20610;-75
2022/08/20 05:56:39;;;;;;;3.33;2.93;;;20.90;99.90;;;;;;5074976;28;20575;-76
2022/08/20 05:59:07;;;;;;;4.80;2.57;;;21.10;99.90;;;;;;5074870;28;20702;-75
2022/08/20 06:01:37;;;;;;;2.80;2.60;;;21.20;99.90;;;;;;5073826;28;20614;-75
2022/08/20 06:04:23;;;;;;;2.80;2.63;;;21.30;99.90;;;;;;5072942;28;20661;-76
2022/08/20 06:06:52;;;;;;;4.23;3.00;;;21.30;99.90;;;;;;5074069;28;20593;-75
2022/08/20 06:09:21;;;;;;;9.17;2.97;;;21.20;99.90;;;;;;5073819;28;20625;-75
2022/08/20 06:11:48;;;;;;;2.20;2.10;;;21.20;99.90;;;;;;5073908;28;20999;-76
2022/08/20 06:14:15;;;;;;;2.60;2.40;;;21.20;99.90;;;;;;5074305;28;20632;-76
2022/08/20 06:16:42;;;;;;;2.50;2.40;;;21.40;99.90;;;;;;5074148;28;20598;-75
2022/08/20 06:19:09;;;;;;;2.43;2.23;;;21.30;99.90;;;;;;5073993;28;20664;-75
2022/08/20 06:21:36;;;;;;;2.10;2.00;;;21.40;99.90;;;;;;5075270;28;20583;-76
2022/08/20 06:24:02;;;;;;;2.40;2.30;;;21.40;99.90;;;;;;5074088;28;20638;-76
2022/08/20 06:26:29;;;;;;;2.43;2.27;;;21.40;99.90;;;;;;5074091;28;20583;-75
2022/08/20 06:28:59;;;;;;;2.50;2.30;;;21.70;99.90;;;;;;5073646;28;20990;-75
2022/08/20 06:31:26;;;;;;;2.37;2.27;;;21.60;99.90;;;;;;5073578;28;20621;-75
2022/08/20 06:33:52;;;;;;;3.00;2.50;;;21.70;99.90;;;;;;5073520;28;20618;-75
2022/08/20 06:36:21;;;;;;;2.00;1.90;;;21.70;99.90;;;;;;5088904;28;20566;-76
2022/08/20 06:38:47;;;;;;;3.33;2.47;;;21.70;99.90;;;;;;5073665;28;20591;-75
2022/08/20 06:41:14;;;;;;;2.37;2.17;;;21.60;99.90;;;;;;5073423;28;20607;-76
2022/08/20 06:43:40;;;;;;;2.77;2.57;;;21.50;99.90;;;;;;5072121;28;20619;-75
2022/08/20 06:46:07;;;;;;;2.33;2.23;;;21.40;99.90;;;;;;5073857;28;20633;-76
2022/08/20 06:48:34;;;;;;;2.40;2.17;;;21.60;99.90;;;;;;5073606;28;20634;-76
2022/08/20 06:51:00;;;;;;;2.20;2.10;;;21.60;99.90;;;;;;5073623;28;20571;-75
2022/08/20 06:53:27;;;;;;;2.10;1.83;;;21.50;99.90;;;;;;5073153;28;20637;-75
2022/08/20 06:55:57;;;;;;;6.60;1.90;;;21.60;99.90;;;;;;5056019;28;20571;-75
2022/08/20 06:58:24;;;;;;;5.63;2.40;;;21.50;99.90;;;;;;5073336;28;20582;-74
2022/08/20 07:00:51;;;;;;;2.73;2.53;;;21.50;99.90;;;;;;5073137;28;20610;-75
2022/08/20 07:03:17;;;;;;;2.00;1.90;;;21.40;99.90;;;;;;5072711;28;20633;-75
2022/08/20 07:05:44;;;;;;;2.33;2.13;;;21.60;99.90;;;;;;5073051;28;21204;-75
2022/08/20 07:08:13;;;;;;;3.03;2.37;;;21.90;99.90;;;;;;5073622;28;20686;-74
2022/08/20 07:10:41;;;;;;;2.37;2.27;;;22.00;99.90;;;;;;5073580;28;20610;-74
2022/08/20 07:13:10;;;;;;;2.07;1.97;;;22.20;99.90;;;;;;5072295;28;20571;-75
2022/08/20 07:15:38;;;;;;;2.37;2.27;;;22.30;99.90;;;;;;5073710;28;20563;-75
2022/08/20 07:18:05;;;;;;;2.20;2.00;;;22.30;99.90;;;;;;5073627;28;20618;-75
2022/08/20 07:20:35;;;;;;;2.60;2.40;;;22.00;99.90;;;;;;5073384;28;21233;-74
2022/08/20 07:23:02;;;;;;;2.30;2.10;;;22.00;99.90;;;;;;5073384;28;20626;-74
2022/08/20 07:25:30;;;;;;;2.30;2.10;;;22.10;99.90;;;;;;5072811;28;21204;-75
2022/08/20 07:28:02;;;;;;;3.20;2.17;;;22.20;99.90;;;;;;5072773;28;20634;-75
2022/08/20 07:33:15;;;;;;;2.20;2.10;;;22.10;99.90;;;;;;5072865;28;20590;-74
2022/08/20 07:35:42;;;;;;;2.53;2.43;;;21.90;99.90;;;;;;5072463;28;20680;-74
2022/08/20 07:38:23;;;;;;;4.73;1.80;;;21.90;99.90;;;;;;5074263;28;21025;-75
2022/08/20 07:40:58;;;;;;;2.53;2.33;;;21.90;99.90;;;;;;5073962;28;20693;-75
2022/08/20 07:43:25;;;;;;;2.00;1.90;;;22.20;99.90;;;;;;5072387;28;20630;-74
2022/08/20 07:45:55;;;;;;;3.30;1.93;;;22.20;99.90;;;;;;5072484;28;21261;-74
2022/08/20 07:48:29;;;;;;;2.60;1.97;;;22.10;99.90;;;;;;5073617;28;21234;-75
2022/08/20 07:50:57;;;;;;;1.97;1.87;;;22.10;99.90;;;;;;5074208;28;20662;-74
2022/08/20 07:53:25;;;;;;;1.90;1.80;;;21.70;99.90;;;;;;5073156;28;20614;-75
2022/08/20 07:55:52;;;;;;;1.90;1.77;;;21.40;99.90;;;;;;5073132;28;20595;-75
2022/08/20 07:58:23;;;;;;;2.23;2.03;;;21.50;99.90;;;;;;5073827;28;20599;-75
2022/08/20 08:00:51;;;;;;;1.73;1.63;;;21.70;99.90;;;;;;5073154;28;20622;-75
2022/08/20 08:03:18;;;;;;;1.90;1.80;;;21.80;99.90;;;;;;5073552;28;20578;-73
2022/08/20 08:05:47;;;;;;;2.20;1.50;;;21.90;99.90;;;;;;5071755;28;21212;-73
2022/08/20 08:08:22;;;;;;;2.00;1.70;;;22.10;99.90;;;;;;5072344;28;21246;-73
2022/08/20 08:10:51;;;;;;;1.70;1.60;;;22.30;99.90;;;;;;5072518;28;20994;-73
2022/08/20 08:13:17;;;;;;;1.77;1.33;;;22.80;99.90;;;;;;5072378;28;20644;-74
2022/08/20 08:15:47;;;;;;;5.80;1.63;;;22.50;99.90;;;;;;5072363;28;20570;-74
2022/08/20 08:18:20;;;;;;;1.73;1.47;;;22.80;99.90;;;;;;5072686;28;20668;-74
2022/08/20 08:20:49;;;;;;;1.77;1.67;;;22.70;99.90;;;;;;5072607;28;20621;-74
2022/08/20 08:23:16;;;;;;;2.07;1.37;;;23.10;99.90;;;;;;5071702;28;21034;-74
2022/08/20 08:25:42;;;;;;;2.87;1.13;;;23.10;99.90;;;;;;5073707;28;20626;-74
2022/08/20 08:28:13;;;;;;;1.30;1.20;;;23.10;99.90;;;;;;5071833;28;20661;-73
2022/08/20 08:30:41;;;;;;;2.50;1.20;;;23.00;99.90;;;;;;5073177;28;20594;-73
2022/08/20 08:33:26;;;;;;;0.90;0.90;;;22.90;99.90;;;;;;5073308;28;20623;-74
2022/08/20 08:35:54;;;;;;;1.63;1.53;;;22.90;99.90;;;;;;5072861;28;20632;-73
2022/08/20 08:38:22;;;;;;;1.63;1.13;;;22.90;99.90;;;;;;5072510;28;20630;-73
2022/08/20 08:40:54;;;;;;;1.07;1.07;;;22.60;99.90;;;;;;5072589;28;20575;-74
2022/08/20 08:43:26;;;;;;;3.23;1.40;;;22.70;99.90;;;;;;5074546;28;20609;-74
2022/08/20 08:46:03;;;;;;;2.40;1.00;;;22.60;99.90;;;;;;5075859;28;20610;-73
2022/08/20 08:48:37;;;;;;;1.10;1.10;;;22.70;99.90;;;;;;5075890;28;21026;-74
2022/08/20 08:51:10;;;;;;;1.20;0.83;;;23.00;99.90;;;;;;5076453;28;20586;-74
2022/08/20 08:53:53;;;;;;;1.03;1.03;;;23.10;99.90;;;;;;5075765;28;20590;-73
2022/08/20 08:56:23;;;;;;;0.70;0.70;;;22.90;99.90;;;;;;5075694;28;20578;-73
2022/08/20 08:58:50;;;;;;;1.63;1.03;;;23.20;99.90;;;;;;5076011;28;20582;-74
2022/08/20 09:01:21;;;;;;;2.17;1.00;;;23.20;99.90;;;;;;5075684;28;21152;-73
2022/08/20 09:03:50;;;;;;;1.93;1.10;;;23.10;99.90;;;;;;5075332;28;20582;-74
2022/08/20 09:06:21;;;;;;;1.47;1.20;;;23.50;99.90;;;;;;5074741;28;20617;-73
2022/08/20 09:08:49;;;;;;;2.00;1.30;;;23.40;99.90;;;;;;5075089;28;20668;-74
2022/08/20 09:11:17;;;;;;;1.30;1.00;;;23.60;99.90;;;;;;5074748;28;21086;-73
2022/08/20 09:13:44;;;;;;;1.80;1.23;;;23.80;99.90;;;;;;5075077;28;20222;-74
2022/08/20 09:16:11;;;;;;;2.03;1.03;;;24.00;99.90;;;;;;5074943;28;21069;-74
2022/08/20 09:18:38;;;;;;;1.23;1.13;;;24.40;99.90;;;;;;5075330;28;20574;-73
2022/08/20 09:21:05;;;;;;;1.10;1.10;;;24.30;99.90;;;;;;5075907;28;20578;-74
2022/08/20 09:23:33;;;;;;;1.33;1.13;;;24.40;99.90;;;;;;5075802;28;20615;-74
2022/08/20 09:25:59;;;;;;;1.10;1.00;;;24.30;99.90;;;;;;5075409;28;20795;-74
2022/08/20 09:28:26;;;;;;;1.20;1.20;;;24.60;99.90;;;;;;5075553;28;20662;-74
2022/08/20 09:30:57;;;;;;;1.90;1.30;;;24.30;99.90;;;;;;5075307;28;20652;-74
2022/08/20 09:33:24;;;;;;;4.17;1.20;;;24.50;99.90;;;;;;5075160;28;21144;-74
2022/08/20 09:35:50;;;;;;;2.50;1.17;;;24.70;99.90;;;;;;5073483;28;20634;-74
2022/08/20 09:38:17;;;;;;;1.27;1.20;;;24.60;99.90;;;;;;5075661;28;20586;-74
2022/08/20 09:40:43;;;;;;;5.03;1.20;;;24.30;99.90;;;;;;5076679;28;20566;-74
2022/08/20 09:43:10;;;;;;;3.33;1.37;;;24.60;99.90;;;;;;5074128;28;21199;-74
2022/08/20 09:45:37;;;;;;;0.90;0.90;;;24.70;99.90;;;;;;5075757;28;20598;-74
2022/08/20 09:48:04;;;;;;;1.93;1.00;;;24.40;99.90;;;;;;5074973;28;21012;-74
2022/08/20 09:50:32;;;;;;;3.37;1.03;;;24.80;99.90;;;;;;5073230;28;20603;-74
2022/08/20 09:53:00;;;;;;;1.10;1.10;;;25.30;99.90;;;;;;5074033;28;20626;-73
2022/08/20 09:55:39;;;;;;;1.07;1.07;;;25.50;99.90;;;;;;5074503;28;20574;-72
2022/08/20 09:58:37;;;;;;;1.27;1.17;;;26.20;99.90;;;;;;5073010;28;20642;-73
2022/08/20 10:01:10;;;;;;;1.20;1.07;;;25.20;99.90;;;;;;5074870;28;20614;-74
2022/08/20 10:03:36;;;;;;;1.83;0.90;;;25.00;99.90;;;;;;5074691;28;20586;-72
2022/08/20 10:06:03;;;;;;;1.60;1.00;;;25.40;99.90;;;;;;5074712;28;20642;-72
2022/08/20 10:08:29;;;;;;;0.90;0.90;;;25.30;99.90;;;;;;5074498;28;20691;-73
2022/08/20 10:10:56;;;;;;;1.00;1.00;;;24.80;99.90;;;;;;5074428;28;20582;-73
2022/08/20 10:13:22;;;;;;;1.37;1.27;;;24.60;99.90;;;;;;5075028;28;20983;-73
2022/08/20 10:15:49;;;;;;;1.13;1.03;;;25.30;99.90;;;;;;5074398;28;20885;-73
2022/08/20 10:18:15;;;;;;;1.87;1.00;;;25.50;99.90;;;;;;5074113;28;20570;-73
2022/08/20 10:20:42;;;;;;;1.13;1.03;;;25.80;99.90;;;;;;5073770;28;20570;-73
2022/08/20 10:23:09;;;;;;;1.20;1.10;;;26.10;99.90;;;;;;5073657;28;20727;-74
2022/08/20 10:25:36;;;;;;;2.07;1.10;;;26.10;99.90;;;;;;5073704;28;20650;-74
2022/08/20 10:28:03;;;;;;;0.90;0.90;;;25.50;99.90;;;;;;5073971;28;20589;-74
2022/08/20 10:30:29;;;;;;;2.60;1.30;;;25.30;99.90;;;;;;5073762;28;20933;-74
2022/08/20 10:32:56;;;;;;;0.93;0.93;;;25.70;99.90;;;;;;5073722;28;20946;-74
2022/08/20 10:35:22;;;;;;;1.20;1.10;;;25.30;99.90;;;;;;5074519;28;20573;-74
2022/08/20 10:37:49;;;;;;;0.93;0.93;;;25.10;99.90;;;;;;5074553;28;21151;-74
2022/08/20 10:40:15;;;;;;;1.77;1.17;;;25.80;99.90;;;;;;5074240;28;20941;-74
2022/08/20 10:42:43;;;;;;;1.63;1.53;;;25.80;99.90;;;;;;5074392;28;20571;-74
2022/08/20 10:45:11;;;;;;;1.23;1.10;;;25.50;99.90;;;;;;5073692;28;20630;-74
2022/08/20 10:47:37;;;;;;;0.97;0.97;;;25.50;99.90;;;;;;5072775;28;20636;-73
2022/08/20 10:50:07;;;;;;;1.17;1.17;;;25.60;99.90;;;;;;5074113;28;20668;-74
2022/08/20 10:52:34;;;;;;;1.00;1.00;;;25.60;99.90;;;;;;5073902;28;20590;-74
2022/08/20 10:55:03;;;;;;;1.03;1.03;;;26.00;99.90;;;;;;5074478;28;20614;-74
2022/08/20 10:57:30;;;;;;;2.37;1.37;;;26.30;99.90;;;;;;5074106;28;21157;-74
2022/08/20 10:59:58;;;;;;;2.40;1.10;;;26.40;99.90;;;;;;5074178;28;21121;-74
2022/08/20 11:02:26;;;;;;;1.63;1.23;;;26.30;99.90;;;;;;5073678;28;20614;-74
2022/08/20 11:04:54;;;;;;;1.97;1.27;;;26.70;99.90;;;;;;5072300;28;20642;-74
2022/08/20 11:07:30;;;;;;;1.40;1.30;;;26.60;99.90;;;;;;5072988;28;20686;-74
2022/08/20 11:09:57;;;;;;;1.57;1.07;;;25.70;99.90;;;;;;5073024;28;20675;-75
2022/08/20 11:12:24;;;;;;;3.90;1.10;;;26.50;99.90;;;;;;5073481;28;20570;-74
2022/08/20 11:14:52;;;;;;;0.87;0.87;;;26.40;99.90;;;;;;5074143;28;21171;-74
2022/08/20 11:17:27;;;;;;;4.83;1.20;;;26.50;99.90;;;;;;5072029;28;20611;-74
2022/08/20 11:19:54;;;;;;;3.63;1.77;;;26.70;99.90;;;;;;5073527;28;20585;-74
2022/08/20 11:22:21;;;;;;;1.80;1.20;;;26.90;99.90;;;;;;5073501;28;20614;-74
2022/08/20 11:24:48;;;;;;;5.23;1.37;;;26.90;99.90;;;;;;5073219;28;20675;-75
2022/08/20 11:27:23;;;;;;;1.20;1.10;;;27.00;99.90;;;;;;5073322;28;20586;-74
2022/08/20 11:29:51;;;;;;;1.13;1.10;;;26.50;99.90;;;;;;5073124;28;20626;-74
2022/08/20 11:32:17;;;;;;;1.90;1.00;;;25.80;99.90;;;;;;5073840;28;20602;-74
2022/08/20 11:34:44;;;;;;;2.77;1.30;;;26.00;99.90;;;;;;5073815;28;20609;-74
2022/08/20 11:37:12;;;;;;;1.30;1.20;;;27.10;99.90;;;;;;5073657;28;21128;-74
2022/08/20 11:39:39;;;;;;;1.23;1.13;;;28.10;99.90;;;;;;5073128;28;20633;-73
2022/08/20 11:42:05;;;;;;;1.10;1.10;;;27.60;99.90;;;;;;5073619;28;20578;-75
2022/08/20 11:44:32;;;;;;;1.40;1.30;;;27.30;99.90;;;;;;5072849;28;21044;-74
2022/08/20 11:47:04;;;;;;;1.50;1.40;;;27.90;99.90;;;;;;5073021;28;20645;-75
2022/08/20 11:49:33;;;;;;;1.17;1.07;;;27.30;99.90;;;;;;5073144;28;21051;-75
2022/08/20 11:51:59;;;;;;;2.70;1.50;;;27.70;99.90;;;;;;5072750;28;20614;-75
2022/08/20 11:54:31;;;;;;;2.13;1.50;;;28.00;99.90;;;;;;5072786;28;20590;-75
2022/08/20 11:56:58;;;;;;;1.47;1.37;;;27.70;99.90;;;;;;5073084;28;20567;-75
2022/08/20 11:59:26;;;;;;;5.30;1.53;;;28.10;99.90;;;;;;5071184;28;20618;-75
2022/08/20 12:01:54;;;;;;;1.20;1.20;;;28.70;99.90;;;;;;5073434;28;20580;-75
2022/08/20 12:04:21;;;;;;;1.47;1.10;;;28.80;99.90;;;;;;5073462;28;20657;-74
2022/08/20 12:06:47;;;;;;;1.23;1.13;;;28.30;99.90;;;;;;5073523;28;20587;-74
2022/08/20 12:09:14;;;;;;;2.50;1.30;;;28.40;99.90;;;;;;5073697;28;20645;-75
2022/08/20 12:11:41;;;;;;;1.60;1.50;;;28.40;99.90;;;;;;5073094;28;20578;-74
2022/08/20 12:14:07;;;;;;;1.30;1.20;;;28.50;99.90;;;;;;5072897;28;20605;-74
2022/08/20 12:16:34;;;;;;;1.23;1.23;;;28.00;99.90;;;;;;5074820;28;20598;-74
2022/08/20 12:19:00;;;;;;;1.20;1.20;;;29.00;99.90;;;;;;5076409;28;20574;-75
2022/08/20 12:21:27;;;;;;;3.03;1.60;;;29.60;99.90;;;;;;5076613;28;20585;-75
2022/08/20 12:23:53;;;;;;;1.20;1.20;;;29.70;99.90;;;;;;5076283;28;20642;-75
2022/08/20 12:26:20;;;;;;;1.63;1.53;;;28.90;99.90;;;;;;5075267;28;20571;-75
2022/08/20 12:28:46;;;;;;;1.30;1.20;;;29.50;99.90;;;;;;5076198;28;21274;-75
2022/08/20 12:31:13;;;;;;;1.30;1.20;;;30.00;99.90;;;;;;5075031;28;20575;-75
2022/08/20 12:33:39;;;;;;;1.60;1.50;;;29.50;99.90;;;;;;5075926;28;20555;-75
2022/08/20 12:36:06;;;;;;;2.37;1.50;;;30.50;99.90;;;;;;5075698;28;20583;-75
2022/08/20 12:38:32;;;;;;;1.93;1.83;;;29.80;99.90;;;;;;5075631;28;21172;-75
2022/08/20 12:40:59;;;;;;;1.97;1.43;;;29.20;99.90;;;;;;5075887;28;20629;-75
2022/08/20 12:43:26;;;;;;;1.70;1.60;;;29.40;99.90;;;;;;5075234;28;20614;-75
2022/08/20 12:45:52;;;;;;;2.17;1.40;;;30.20;99.90;;;;;;5075746;28;20610;-75
2022/08/20 12:48:19;;;;;;;1.57;1.47;;;30.80;99.90;;;;;;5075617;28;20579;-75
2022/08/20 12:50:46;;;;;;;1.63;1.53;;;30.50;99.90;;;;;;5075358;28;20985;-75
2022/08/20 12:53:12;;;;;;;2.00;1.90;;;30.70;99.90;;;;;;5075809;28;20926;-75
2022/08/20 12:55:39;;;;;;;2.20;2.00;;;31.10;99.90;;;;;;5075563;28;20589;-75
2022/08/20 12:58:08;;;;;;;2.00;1.90;;;30.90;99.90;;;;;;5075825;28;20622;-75
2022/08/20 13:00:43;;;;;;;2.10;2.00;;;30.40;99.90;;;;;;5075388;28;21211;-75
2022/08/20 13:03:11;;;;;;;2.03;1.93;;;31.20;99.90;;;;;;5075919;28;20578;-75
2022/08/20 13:05:38;;;;;;;2.90;2.30;;;30.60;99.90;;;;;;5075523;28;20637;-75